sensor_id;sensor_type;location;lat;lon;timestamp;P1;durP1;ratioP1;P2;durP2;ratioP2
77518;SDS011;66629;47.346;19.038;2023-05-07T00:01:50;8.85;;;6.90;;
77518;SDS011;66629;47.346;19.038;2023-05-07T00:04:16;9.68;;;7.05;;
77518;SDS011;66629;47.346;19.038;2023-05-07T00:06:42;8.75;;;6.95;;
77518;SDS011;66629;47.346;19.038;2023-05-07T00:09:07;8.25;;;6.60;;
77518;SDS011;66629;47.346;19.038;2023-05-07T00:11:33;10.57;;;7.80;;
77518;SDS011;66629;47.346;19.038;2023-05-07T00:14:02;10.00;;;7.35;;
77518;SDS011;66629;47.346;19.038;2023-05-07T00:16:27;9.20;;;6.95;;
77518;SDS011;66629;47.346;19.038;2023-05-07T00:18:52;9.32;;;7.57;;
77518;SDS011;66629;47.346;19.038;2023-05-07T00:21:18;8.52;;;7.50;;
77518;SDS011;66629;47.346;19.038;2023-05-07T00:23:44;9.05;;;7.13;;
77518;SDS011;66629;47.346;19.038;2023-05-07T00:26:09;8.65;;;7.40;;
77518;SDS011;66629;47.346;19.038;2023-05-07T00:28:34;8.98;;;7.20;;
77518;SDS011;66629;47.346;19.038;2023-05-07T00:31:00;9.27;;;7.07;;
77518;SDS011;66629;47.346;19.038;2023-05-07T00:33:25;9.55;;;7.00;;
77518;SDS011;66629;47.346;19.038;2023-05-07T00:35:52;9.73;;;7.63;;
77518;SDS011;66629;47.346;19.038;2023-05-07T00:38:19;8.25;;;6.93;;
77518;SDS011;66629;47.346;19.038;2023-05-07T00:40:44;9.20;;;7.40;;
77518;SDS011;66629;47.346;19.038;2023-05-07T00:43:10;8.10;;;7.10;;
77518;SDS011;66629;47.346;19.038;2023-05-07T00:45:36;8.93;;;7.25;;
77518;SDS011;66629;47.346;19.038;2023-05-07T00:48:01;7.15;;;6.18;;
77518;SDS011;66629;47.346;19.038;2023-05-07T00:50:28;9.32;;;7.15;;
77518;SDS011;66629;47.346;19.038;2023-05-07T00:52:54;8.35;;;7.13;;
77518;SDS011;66629;47.346;19.038;2023-05-07T00:55:21;8.23;;;6.97;;
77518;SDS011;66629;47.346;19.038;2023-05-07T00:57:47;8.65;;;6.95;;
77518;SDS011;66629;47.346;19.038;2023-05-07T01:00:12;8.95;;;6.93;;
77518;SDS011;66629;47.346;19.038;2023-05-07T01:02:38;10.10;;;7.22;;
77518;SDS011;66629;47.346;19.038;2023-05-07T01:05:04;10.30;;;6.95;;
77518;SDS011;66629;47.346;19.038;2023-05-07T01:07:32;8.60;;;6.63;;
77518;SDS011;66629;47.346;19.038;2023-05-07T01:09:59;8.45;;;6.78;;
77518;SDS011;66629;47.346;19.038;2023-05-07T01:12:25;7.60;;;6.47;;
77518;SDS011;66629;47.346;19.038;2023-05-07T01:14:52;8.77;;;7.50;;
77518;SDS011;66629;47.346;19.038;2023-05-07T01:17:18;9.15;;;7.95;;
77518;SDS011;66629;47.346;19.038;2023-05-07T01:19:44;9.23;;;7.07;;
77518;SDS011;66629;47.346;19.038;2023-05-07T01:22:09;8.73;;;6.90;;
77518;SDS011;66629;47.346;19.038;2023-05-07T01:24:39;11.18;;;7.72;;
77518;SDS011;66629;47.346;19.038;2023-05-07T01:27:05;9.50;;;7.25;;
77518;SDS011;66629;47.346;19.038;2023-05-07T01:29:31;10.07;;;8.20;;
77518;SDS011;66629;47.346;19.038;2023-05-07T01:31:57;9.95;;;8.05;;
77518;SDS011;66629;47.346;19.038;2023-05-07T01:34:25;10.43;;;7.57;;
77518;SDS011;66629;47.346;19.038;2023-05-07T01:36:52;7.90;;;6.75;;
77518;SDS011;66629;47.346;19.038;2023-05-07T01:39:20;9.82;;;7.65;;
77518;SDS011;66629;47.346;19.038;2023-05-07T01:41:47;9.77;;;7.65;;
77518;SDS011;66629;47.346;19.038;2023-05-07T01:44:13;8.82;;;7.80;;
77518;SDS011;66629;47.346;19.038;2023-05-07T01:46:40;8.93;;;7.15;;
77518;SDS011;66629;47.346;19.038;2023-05-07T01:49:05;9.45;;;7.32;;
77518;SDS011;66629;47.346;19.038;2023-05-07T01:51:31;8.65;;;7.40;;
77518;SDS011;66629;47.346;19.038;2023-05-07T01:53:57;8.45;;;7.53;;
77518;SDS011;66629;47.346;19.038;2023-05-07T01:56:23;8.68;;;7.35;;
77518;SDS011;66629;47.346;19.038;2023-05-07T01:58:50;8.77;;;7.22;;
77518;SDS011;66629;47.346;19.038;2023-05-07T02:01:17;9.63;;;7.55;;
77518;SDS011;66629;47.346;19.038;2023-05-07T02:03:43;10.65;;;6.93;;
77518;SDS011;66629;47.346;19.038;2023-05-07T02:06:08;8.43;;;7.03;;
77518;SDS011;66629;47.346;19.038;2023-05-07T02:08:34;8.63;;;6.35;;
77518;SDS011;66629;47.346;19.038;2023-05-07T02:10:59;8.93;;;7.22;;
77518;SDS011;66629;47.346;19.038;2023-05-07T02:13:26;8.35;;;6.97;;
77518;SDS011;66629;47.346;19.038;2023-05-07T02:15:53;8.20;;;6.70;;
77518;SDS011;66629;47.346;19.038;2023-05-07T02:18:19;7.85;;;6.35;;
77518;SDS011;66629;47.346;19.038;2023-05-07T02:20:44;7.60;;;6.47;;
77518;SDS011;66629;47.346;19.038;2023-05-07T02:23:10;9.52;;;7.10;;
77518;SDS011;66629;47.346;19.038;2023-05-07T02:25:35;7.72;;;6.18;;
77518;SDS011;66629;47.346;19.038;2023-05-07T02:28:01;7.80;;;6.35;;
77518;SDS011;66629;47.346;19.038;2023-05-07T02:30:26;9.20;;;6.93;;
77518;SDS011;66629;47.346;19.038;2023-05-07T02:32:51;7.90;;;6.57;;
77518;SDS011;66629;47.346;19.038;2023-05-07T02:35:17;9.27;;;6.88;;
77518;SDS011;66629;47.346;19.038;2023-05-07T02:37:42;8.73;;;6.88;;
77518;SDS011;66629;47.346;19.038;2023-05-07T02:40:08;10.52;;;7.32;;
77518;SDS011;66629;47.346;19.038;2023-05-07T02:42:34;8.60;;;6.88;;
77518;SDS011;66629;47.346;19.038;2023-05-07T02:45:00;7.47;;;6.65;;
77518;SDS011;66629;47.346;19.038;2023-05-07T02:47:25;8.77;;;6.70;;
77518;SDS011;66629;47.346;19.038;2023-05-07T02:49:53;8.13;;;6.63;;
77518;SDS011;66629;47.346;19.038;2023-05-07T02:52:19;8.05;;;6.10;;
77518;SDS011;66629;47.346;19.038;2023-05-07T02:54:44;8.55;;;7.07;;
77518;SDS011;66629;47.346;19.038;2023-05-07T02:57:10;8.75;;;7.10;;
77518;SDS011;66629;47.346;19.038;2023-05-07T02:59:35;8.70;;;7.00;;
77518;SDS011;66629;47.346;19.038;2023-05-07T03:02:01;8.75;;;6.88;;
77518;SDS011;66629;47.346;19.038;2023-05-07T03:04:26;9.20;;;7.47;;
77518;SDS011;66629;47.346;19.038;2023-05-07T03:06:52;8.43;;;6.95;;
77518;SDS011;66629;47.346;19.038;2023-05-07T03:09:17;8.93;;;7.10;;
77518;SDS011;66629;47.346;19.038;2023-05-07T03:11:43;8.80;;;7.10;;
77518;SDS011;66629;47.346;19.038;2023-05-07T03:14:08;8.73;;;7.03;;
77518;SDS011;66629;47.346;19.038;2023-05-07T03:16:34;8.32;;;7.05;;
77518;SDS011;66629;47.346;19.038;2023-05-07T03:18:59;9.65;;;7.40;;
77518;SDS011;66629;47.346;19.038;2023-05-07T03:21:25;9.95;;;7.07;;
77518;SDS011;66629;47.346;19.038;2023-05-07T03:23:51;8.10;;;6.57;;
77518;SDS011;66629;47.346;19.038;2023-05-07T03:26:17;8.30;;;7.05;;
77518;SDS011;66629;47.346;19.038;2023-05-07T03:28:42;9.80;;;7.13;;
77518;SDS011;66629;47.346;19.038;2023-05-07T03:31:07;8.93;;;7.65;;
77518;SDS011;66629;47.346;19.038;2023-05-07T03:33:33;10.95;;;7.65;;
77518;SDS011;66629;47.346;19.038;2023-05-07T03:36:00;9.60;;;7.13;;
77518;SDS011;66629;47.346;19.038;2023-05-07T03:38:25;9.43;;;7.03;;
77518;SDS011;66629;47.346;19.038;2023-05-07T03:40:51;8.93;;;6.60;;
77518;SDS011;66629;47.346;19.038;2023-05-07T03:43:16;8.85;;;6.80;;
77518;SDS011;66629;47.346;19.038;2023-05-07T03:45:42;8.90;;;7.43;;
77518;SDS011;66629;47.346;19.038;2023-05-07T03:48:07;9.18;;;7.05;;
77518;SDS011;66629;47.346;19.038;2023-05-07T03:50:33;9.20;;;7.10;;
77518;SDS011;66629;47.346;19.038;2023-05-07T03:52:58;8.98;;;7.10;;
77518;SDS011;66629;47.346;19.038;2023-05-07T03:55:24;11.02;;;7.85;;
77518;SDS011;66629;47.346;19.038;2023-05-07T03:57:50;8.90;;;7.50;;
77518;SDS011;66629;47.346;19.038;2023-05-07T04:00:15;10.55;;;7.30;;
77518;SDS011;66629;47.346;19.038;2023-05-07T04:02:41;10.27;;;7.93;;
77518;SDS011;66629;47.346;19.038;2023-05-07T04:05:07;9.32;;;7.70;;
77518;SDS011;66629;47.346;19.038;2023-05-07T04:07:32;10.70;;;7.45;;
77518;SDS011;66629;47.346;19.038;2023-05-07T04:09:58;9.77;;;7.38;;
77518;SDS011;66629;47.346;19.038;2023-05-07T04:12:23;9.80;;;7.47;;
77518;SDS011;66629;47.346;19.038;2023-05-07T04:14:49;9.32;;;7.53;;
77518;SDS011;66629;47.346;19.038;2023-05-07T04:17:15;9.18;;;7.50;;
77518;SDS011;66629;47.346;19.038;2023-05-07T04:19:40;10.35;;;7.60;;
77518;SDS011;66629;47.346;19.038;2023-05-07T04:22:10;10.15;;;7.63;;
77518;SDS011;66629;47.346;19.038;2023-05-07T04:24:35;10.70;;;8.52;;
77518;SDS011;66629;47.346;19.038;2023-05-07T04:27:01;9.82;;;8.23;;
77518;SDS011;66629;47.346;19.038;2023-05-07T04:29:26;9.32;;;7.43;;
77518;SDS011;66629;47.346;19.038;2023-05-07T04:31:52;10.75;;;7.80;;
77518;SDS011;66629;47.346;19.038;2023-05-07T04:34:17;9.77;;;7.88;;
77518;SDS011;66629;47.346;19.038;2023-05-07T04:36:43;12.13;;;8.38;;
77518;SDS011;66629;47.346;19.038;2023-05-07T04:39:08;11.15;;;8.60;;
77518;SDS011;66629;47.346;19.038;2023-05-07T04:41:35;11.05;;;8.25;;
77518;SDS011;66629;47.346;19.038;2023-05-07T04:44:01;9.20;;;7.50;;
77518;SDS011;66629;47.346;19.038;2023-05-07T04:46:29;8.98;;;7.57;;
77518;SDS011;66629;47.346;19.038;2023-05-07T04:48:54;9.73;;;7.75;;
77518;SDS011;66629;47.346;19.038;2023-05-07T04:51:20;9.27;;;7.35;;
77518;SDS011;66629;47.346;19.038;2023-05-07T04:53:45;8.05;;;6.57;;
77518;SDS011;66629;47.346;19.038;2023-05-07T04:56:11;7.97;;;7.03;;
77518;SDS011;66629;47.346;19.038;2023-05-07T04:58:36;8.82;;;7.30;;
77518;SDS011;66629;47.346;19.038;2023-05-07T05:01:02;9.90;;;7.65;;
77518;SDS011;66629;47.346;19.038;2023-05-07T05:03:27;8.70;;;7.32;;
77518;SDS011;66629;47.346;19.038;2023-05-07T05:05:52;9.18;;;7.50;;
77518;SDS011;66629;47.346;19.038;2023-05-07T05:08:18;8.52;;;7.22;;
77518;SDS011;66629;47.346;19.038;2023-05-07T05:10:44;8.75;;;7.10;;
77518;SDS011;66629;47.346;19.038;2023-05-07T05:13:09;8.60;;;6.78;;
77518;SDS011;66629;47.346;19.038;2023-05-07T05:15:37;8.48;;;6.85;;
77518;SDS011;66629;47.346;19.038;2023-05-07T05:18:03;9.75;;;6.72;;
77518;SDS011;66629;47.346;19.038;2023-05-07T05:20:28;7.63;;;6.45;;
77518;SDS011;66629;47.346;19.038;2023-05-07T05:22:54;7.78;;;6.60;;
77518;SDS011;66629;47.346;19.038;2023-05-07T05:25:20;7.68;;;6.22;;
77518;SDS011;66629;47.346;19.038;2023-05-07T05:27:45;7.68;;;6.20;;
77518;SDS011;66629;47.346;19.038;2023-05-07T05:30:11;10.38;;;6.72;;
77518;SDS011;66629;47.346;19.038;2023-05-07T05:32:37;7.85;;;6.75;;
77518;SDS011;66629;47.346;19.038;2023-05-07T05:35:03;9.68;;;7.13;;
77518;SDS011;66629;47.346;19.038;2023-05-07T05:37:29;7.70;;;6.57;;
77518;SDS011;66629;47.346;19.038;2023-05-07T05:39:56;10.23;;;7.30;;
77518;SDS011;66629;47.346;19.038;2023-05-07T05:42:21;8.32;;;6.25;;
77518;SDS011;66629;47.346;19.038;2023-05-07T05:44:47;8.85;;;6.80;;
77518;SDS011;66629;47.346;19.038;2023-05-07T05:47:12;8.68;;;7.10;;
77518;SDS011;66629;47.346;19.038;2023-05-07T05:49:38;9.25;;;6.68;;
77518;SDS011;66629;47.346;19.038;2023-05-07T05:52:04;10.75;;;8.90;;
77518;SDS011;66629;47.346;19.038;2023-05-07T05:54:29;8.82;;;6.75;;
77518;SDS011;66629;47.346;19.038;2023-05-07T05:56:55;9.63;;;7.07;;
77518;SDS011;66629;47.346;19.038;2023-05-07T05:59:20;8.20;;;6.78;;
77518;SDS011;66629;47.346;19.038;2023-05-07T06:01:46;8.30;;;6.43;;
77518;SDS011;66629;47.346;19.038;2023-05-07T06:04:11;8.02;;;6.45;;
77518;SDS011;66629;47.346;19.038;2023-05-07T06:06:37;8.60;;;6.75;;
77518;SDS011;66629;47.346;19.038;2023-05-07T06:09:02;7.65;;;6.55;;
77518;SDS011;66629;47.346;19.038;2023-05-07T06:11:28;8.85;;;6.05;;
77518;SDS011;66629;47.346;19.038;2023-05-07T06:13:53;8.82;;;5.90;;
77518;SDS011;66629;47.346;19.038;2023-05-07T06:16:19;7.32;;;5.68;;
77518;SDS011;66629;47.346;19.038;2023-05-07T06:18:44;6.65;;;5.68;;
77518;SDS011;66629;47.346;19.038;2023-05-07T06:21:11;7.45;;;6.50;;
77518;SDS011;66629;47.346;19.038;2023-05-07T06:23:38;8.48;;;6.78;;
77518;SDS011;66629;47.346;19.038;2023-05-07T06:26:05;8.48;;;6.82;;
77518;SDS011;66629;47.346;19.038;2023-05-07T06:28:31;9.00;;;7.40;;
77518;SDS011;66629;47.346;19.038;2023-05-07T06:31:21;9.73;;;7.75;;
77518;SDS011;66629;47.346;19.038;2023-05-07T06:33:46;8.65;;;7.40;;
77518;SDS011;66629;47.346;19.038;2023-05-07T06:36:12;8.27;;;7.28;;
77518;SDS011;66629;47.346;19.038;2023-05-07T06:38:37;8.00;;;7.20;;
77518;SDS011;66629;47.346;19.038;2023-05-07T06:41:03;8.65;;;7.60;;
77518;SDS011;66629;47.346;19.038;2023-05-07T06:43:30;12.13;;;8.10;;
77518;SDS011;66629;47.346;19.038;2023-05-07T06:45:55;9.35;;;8.02;;
77518;SDS011;66629;47.346;19.038;2023-05-07T06:48:21;8.27;;;7.25;;
77518;SDS011;66629;47.346;19.038;2023-05-07T06:50:46;9.10;;;7.60;;
77518;SDS011;66629;47.346;19.038;2023-05-07T06:53:11;9.25;;;7.28;;
77518;SDS011;66629;47.346;19.038;2023-05-07T06:55:37;9.32;;;7.53;;
77518;SDS011;66629;47.346;19.038;2023-05-07T06:58:03;8.48;;;6.70;;
77518;SDS011;66629;47.346;19.038;2023-05-07T07:00:28;8.80;;;6.65;;
77518;SDS011;66629;47.346;19.038;2023-05-07T07:02:54;8.52;;;7.63;;
77518;SDS011;66629;47.346;19.038;2023-05-07T07:05:20;8.68;;;7.50;;
77518;SDS011;66629;47.346;19.038;2023-05-07T07:07:47;9.05;;;7.07;;
77518;SDS011;66629;47.346;19.038;2023-05-07T07:10:18;8.90;;;7.53;;
77518;SDS011;66629;47.346;19.038;2023-05-07T07:12:46;9.18;;;7.13;;
77518;SDS011;66629;47.346;19.038;2023-05-07T07:15:13;7.70;;;6.82;;
77518;SDS011;66629;47.346;19.038;2023-05-07T07:17:39;8.38;;;6.93;;
77518;SDS011;66629;47.346;19.038;2023-05-07T07:20:05;7.70;;;6.10;;
77518;SDS011;66629;47.346;19.038;2023-05-07T07:22:30;7.63;;;6.68;;
77518;SDS011;66629;47.346;19.038;2023-05-07T07:24:56;8.13;;;6.68;;
77518;SDS011;66629;47.346;19.038;2023-05-07T07:27:21;7.47;;;6.63;;
77518;SDS011;66629;47.346;19.038;2023-05-07T07:29:47;8.68;;;6.80;;
77518;SDS011;66629;47.346;19.038;2023-05-07T07:32:12;8.95;;;6.72;;
77518;SDS011;66629;47.346;19.038;2023-05-07T07:34:39;6.90;;;5.88;;
77518;SDS011;66629;47.346;19.038;2023-05-07T07:37:04;6.20;;;4.82;;
77518;SDS011;66629;47.346;19.038;2023-05-07T07:39:33;6.63;;;5.32;;
77518;SDS011;66629;47.346;19.038;2023-05-07T07:41:58;6.97;;;5.15;;
77518;SDS011;66629;47.346;19.038;2023-05-07T07:44:24;5.75;;;4.90;;
77518;SDS011;66629;47.346;19.038;2023-05-07T07:46:50;6.60;;;5.50;;
77518;SDS011;66629;47.346;19.038;2023-05-07T07:49:15;6.72;;;5.10;;
77518;SDS011;66629;47.346;19.038;2023-05-07T07:51:41;6.20;;;4.70;;
77518;SDS011;66629;47.346;19.038;2023-05-07T07:54:06;5.55;;;4.28;;
77518;SDS011;66629;47.346;19.038;2023-05-07T07:56:32;5.28;;;4.47;;
77518;SDS011;66629;47.346;19.038;2023-05-07T07:59:01;5.90;;;4.30;;
77518;SDS011;66629;47.346;19.038;2023-05-07T08:01:27;4.95;;;3.83;;
77518;SDS011;66629;47.346;19.038;2023-05-07T08:03:54;6.90;;;4.55;;
77518;SDS011;66629;47.346;19.038;2023-05-07T08:06:20;4.90;;;3.65;;
77518;SDS011;66629;47.346;19.038;2023-05-07T08:08:45;5.45;;;4.05;;
77518;SDS011;66629;47.346;19.038;2023-05-07T08:11:10;4.57;;;3.58;;
77518;SDS011;66629;47.346;19.038;2023-05-07T08:13:36;5.85;;;4.40;;
77518;SDS011;66629;47.346;19.038;2023-05-07T08:16:03;6.53;;;5.00;;
77518;SDS011;66629;47.346;19.038;2023-05-07T08:18:29;5.88;;;4.95;;
77518;SDS011;66629;47.346;19.038;2023-05-07T08:20:54;7.93;;;5.28;;
77518;SDS011;66629;47.346;19.038;2023-05-07T08:23:20;9.30;;;5.90;;
77518;SDS011;66629;47.346;19.038;2023-05-07T08:25:46;6.72;;;5.28;;
77518;SDS011;66629;47.346;19.038;2023-05-07T08:28:11;6.85;;;5.57;;
77518;SDS011;66629;47.346;19.038;2023-05-07T08:30:37;7.95;;;5.78;;
77518;SDS011;66629;47.346;19.038;2023-05-07T08:33:02;8.95;;;5.82;;
77518;SDS011;66629;47.346;19.038;2023-05-07T08:35:28;6.72;;;5.50;;
77518;SDS011;66629;47.346;19.038;2023-05-07T08:37:53;7.00;;;5.72;;
77518;SDS011;66629;47.346;19.038;2023-05-07T08:40:19;7.95;;;5.88;;
77518;SDS011;66629;47.346;19.038;2023-05-07T08:42:49;8.48;;;5.97;;
77518;SDS011;66629;47.346;19.038;2023-05-07T08:45:17;6.55;;;5.15;;
77518;SDS011;66629;47.346;19.038;2023-05-07T08:47:44;6.43;;;5.57;;
77518;SDS011;66629;47.346;19.038;2023-05-07T08:50:15;8.15;;;4.75;;
77518;SDS011;66629;47.346;19.038;2023-05-07T08:52:41;7.85;;;5.78;;
77518;SDS011;66629;47.346;19.038;2023-05-07T08:55:07;7.25;;;5.43;;
77518;SDS011;66629;47.346;19.038;2023-05-07T08:57:33;7.95;;;5.57;;
77518;SDS011;66629;47.346;19.038;2023-05-07T08:59:59;6.30;;;5.30;;
77518;SDS011;66629;47.346;19.038;2023-05-07T09:02:24;7.82;;;6.15;;
77518;SDS011;66629;47.346;19.038;2023-05-07T09:04:50;6.63;;;5.60;;
77518;SDS011;66629;47.346;19.038;2023-05-07T09:07:15;7.35;;;5.50;;
77518;SDS011;66629;47.346;19.038;2023-05-07T09:09:41;8.18;;;5.20;;
77518;SDS011;66629;47.346;19.038;2023-05-07T09:12:08;5.15;;;3.90;;
77518;SDS011;66629;47.346;19.038;2023-05-07T09:14:34;5.75;;;4.32;;
77518;SDS011;66629;47.346;19.038;2023-05-07T09:17:00;5.47;;;4.53;;
77518;SDS011;66629;47.346;19.038;2023-05-07T09:19:27;6.95;;;5.10;;
77518;SDS011;66629;47.346;19.038;2023-05-07T09:21:59;6.63;;;4.35;;
77518;SDS011;66629;47.346;19.038;2023-05-07T09:24:28;5.63;;;4.72;;
77518;SDS011;66629;47.346;19.038;2023-05-07T09:26:58;5.00;;;3.85;;
77518;SDS011;66629;47.346;19.038;2023-05-07T09:29:24;5.80;;;3.22;;
77518;SDS011;66629;47.346;19.038;2023-05-07T09:31:50;8.18;;;4.35;;
77518;SDS011;66629;47.346;19.038;2023-05-07T09:34:15;5.72;;;4.40;;
77518;SDS011;66629;47.346;19.038;2023-05-07T09:36:41;5.07;;;3.97;;
77518;SDS011;66629;47.346;19.038;2023-05-07T09:39:07;8.10;;;4.47;;
77518;SDS011;66629;47.346;19.038;2023-05-07T09:41:32;6.45;;;4.70;;
77518;SDS011;66629;47.346;19.038;2023-05-07T09:43:58;6.68;;;5.10;;
77518;SDS011;66629;47.346;19.038;2023-05-07T09:46:29;6.45;;;4.70;;
77518;SDS011;66629;47.346;19.038;2023-05-07T09:48:59;8.38;;;4.65;;
77518;SDS011;66629;47.346;19.038;2023-05-07T09:51:30;5.65;;;3.60;;
77518;SDS011;66629;47.346;19.038;2023-05-07T09:54:03;6.90;;;4.03;;
77518;SDS011;66629;47.346;19.038;2023-05-07T09:56:30;3.97;;;2.75;;
77518;SDS011;66629;47.346;19.038;2023-05-07T09:58:57;4.28;;;2.58;;
77518;SDS011;66629;47.346;19.038;2023-05-07T10:01:25;5.43;;;3.72;;
77518;SDS011;66629;47.346;19.038;2023-05-07T10:03:52;4.93;;;3.60;;
77518;SDS011;66629;47.346;19.038;2023-05-07T10:06:19;7.80;;;4.22;;
77518;SDS011;66629;47.346;19.038;2023-05-07T10:08:45;6.35;;;4.03;;
77518;SDS011;66629;47.346;19.038;2023-05-07T10:11:11;4.53;;;3.13;;
77518;SDS011;66629;47.346;19.038;2023-05-07T10:13:37;3.75;;;3.00;;
77518;SDS011;66629;47.346;19.038;2023-05-07T10:16:03;4.40;;;2.65;;
77518;SDS011;66629;47.346;19.038;2023-05-07T10:18:33;3.08;;;2.40;;
77518;SDS011;66629;47.346;19.038;2023-05-07T10:21:02;2.90;;;2.10;;
77518;SDS011;66629;47.346;19.038;2023-05-07T10:23:32;3.22;;;2.53;;
77518;SDS011;66629;47.346;19.038;2023-05-07T10:25:58;2.60;;;2.20;;
77518;SDS011;66629;47.346;19.038;2023-05-07T10:28:26;2.58;;;2.03;;
77518;SDS011;66629;47.346;19.038;2023-05-07T10:33:27;7.95;;;3.35;;
77518;SDS011;66629;47.346;19.038;2023-05-07T10:35:58;4.35;;;3.83;;
77518;SDS011;66629;47.346;19.038;2023-05-07T10:38:26;4.43;;;3.47;;
77518;SDS011;66629;47.346;19.038;2023-05-07T10:40:52;5.28;;;3.67;;
77518;SDS011;66629;47.346;19.038;2023-05-07T10:43:18;5.72;;;4.30;;
77518;SDS011;66629;47.346;19.038;2023-05-07T10:45:43;5.63;;;4.50;;
77518;SDS011;66629;47.346;19.038;2023-05-07T10:48:29;7.07;;;4.93;;
77518;SDS011;66629;47.346;19.038;2023-05-07T10:53:46;6.15;;;4.97;;
77518;SDS011;66629;47.346;19.038;2023-05-07T10:58:46;5.80;;;5.18;;
77518;SDS011;66629;47.346;19.038;2023-05-07T11:01:11;6.05;;;4.70;;
77518;SDS011;66629;47.346;19.038;2023-05-07T11:04:12;9.23;;;4.95;;
77518;SDS011;66629;47.346;19.038;2023-05-07T11:06:37;6.68;;;5.10;;
77518;SDS011;66629;47.346;19.038;2023-05-07T11:09:03;5.68;;;4.93;;
77518;SDS011;66629;47.346;19.038;2023-05-07T11:12:02;6.70;;;4.80;;
77518;SDS011;66629;47.346;19.038;2023-05-07T11:17:16;6.13;;;4.63;;
77518;SDS011;66629;47.346;19.038;2023-05-07T11:19:49;5.53;;;4.03;;
77518;SDS011;66629;47.346;19.038;2023-05-07T11:24:56;3.78;;;2.90;;
77518;SDS011;66629;47.346;19.038;2023-05-07T11:27:24;4.78;;;3.03;;
77518;SDS011;66629;47.346;19.038;2023-05-07T11:29:50;4.18;;;3.05;;
77518;SDS011;66629;47.346;19.038;2023-05-07T11:32:16;3.25;;;2.83;;
77518;SDS011;66629;47.346;19.038;2023-05-07T11:34:50;4.45;;;2.88;;
77518;SDS011;66629;47.346;19.038;2023-05-07T11:37:17;2.70;;;2.33;;
77518;SDS011;66629;47.346;19.038;2023-05-07T11:39:43;2.78;;;2.40;;
77518;SDS011;66629;47.346;19.038;2023-05-07T11:42:29;3.40;;;2.47;;
77518;SDS011;66629;47.346;19.038;2023-05-07T11:44:55;4.40;;;2.58;;
77518;SDS011;66629;47.346;19.038;2023-05-07T11:47:21;5.85;;;2.90;;
77518;SDS011;66629;47.346;19.038;2023-05-07T11:49:50;2.85;;;2.58;;
77518;SDS011;66629;47.346;19.038;2023-05-07T11:52:17;3.67;;;2.85;;
77518;SDS011;66629;47.346;19.038;2023-05-07T11:54:54;3.35;;;2.38;;
77518;SDS011;66629;47.346;19.038;2023-05-07T11:57:21;5.40;;;2.67;;
77518;SDS011;66629;47.346;19.038;2023-05-07T11:59:47;4.00;;;2.63;;
77518;SDS011;66629;47.346;19.038;2023-05-07T12:02:16;4.97;;;3.03;;
77518;SDS011;66629;47.346;19.038;2023-05-07T12:04:42;3.58;;;2.90;;
77518;SDS011;66629;47.346;19.038;2023-05-07T12:07:11;4.00;;;3.05;;
77518;SDS011;66629;47.346;19.038;2023-05-07T12:09:39;2.85;;;2.42;;
77518;SDS011;66629;47.346;19.038;2023-05-07T12:12:05;3.65;;;2.30;;
77518;SDS011;66629;47.346;19.038;2023-05-07T12:14:31;3.78;;;2.35;;
77518;SDS011;66629;47.346;19.038;2023-05-07T12:16:57;4.47;;;2.70;;
77518;SDS011;66629;47.346;19.038;2023-05-07T12:19:24;3.42;;;2.42;;
77518;SDS011;66629;47.346;19.038;2023-05-07T12:21:49;3.38;;;2.80;;
77518;SDS011;66629;47.346;19.038;2023-05-07T12:24:15;2.97;;;2.33;;
77518;SDS011;66629;47.346;19.038;2023-05-07T12:26:41;4.38;;;2.42;;
77518;SDS011;66629;47.346;19.038;2023-05-07T12:29:07;4.72;;;2.22;;
77518;SDS011;66629;47.346;19.038;2023-05-07T12:31:32;3.10;;;2.20;;
77518;SDS011;66629;47.346;19.038;2023-05-07T12:33:58;3.03;;;2.33;;
77518;SDS011;66629;47.346;19.038;2023-05-07T12:36:23;2.20;;;2.00;;
77518;SDS011;66629;47.346;19.038;2023-05-07T12:38:49;3.13;;;1.90;;
77518;SDS011;66629;47.346;19.038;2023-05-07T12:41:15;2.35;;;2.10;;
77518;SDS011;66629;47.346;19.038;2023-05-07T12:43:43;3.63;;;2.45;;
77518;SDS011;66629;47.346;19.038;2023-05-07T12:46:09;2.00;;;1.80;;
77518;SDS011;66629;47.346;19.038;2023-05-07T12:48:38;3.08;;;2.00;;
77518;SDS011;66629;47.346;19.038;2023-05-07T12:51:08;3.70;;;2.60;;
77518;SDS011;66629;47.346;19.038;2023-05-07T12:53:39;3.03;;;2.00;;
77518;SDS011;66629;47.346;19.038;2023-05-07T12:56:07;2.90;;;2.35;;
77518;SDS011;66629;47.346;19.038;2023-05-07T12:58:33;2.85;;;2.00;;
77518;SDS011;66629;47.346;19.038;2023-05-07T13:01:00;2.65;;;2.10;;
77518;SDS011;66629;47.346;19.038;2023-05-07T13:03:30;3.03;;;2.30;;
77518;SDS011;66629;47.346;19.038;2023-05-07T13:05:56;2.40;;;1.88;;
77518;SDS011;66629;47.346;19.038;2023-05-07T13:08:42;2.42;;;2.00;;
77518;SDS011;66629;47.346;19.038;2023-05-07T13:11:08;3.00;;;2.08;;
77518;SDS011;66629;47.346;19.038;2023-05-07T13:13:35;2.65;;;2.33;;
77518;SDS011;66629;47.346;19.038;2023-05-07T13:16:02;4.82;;;2.63;;
77518;SDS011;66629;47.346;19.038;2023-05-07T13:18:29;2.97;;;2.42;;
77518;SDS011;66629;47.346;19.038;2023-05-07T13:20:55;5.35;;;2.95;;
77518;SDS011;66629;47.346;19.038;2023-05-07T13:23:20;3.03;;;2.22;;
77518;SDS011;66629;47.346;19.038;2023-05-07T13:25:46;3.03;;;2.20;;
77518;SDS011;66629;47.346;19.038;2023-05-07T13:28:11;3.75;;;2.38;;
77518;SDS011;66629;47.346;19.038;2023-05-07T13:30:37;2.38;;;2.17;;
77518;SDS011;66629;47.346;19.038;2023-05-07T13:33:03;2.75;;;2.05;;
77518;SDS011;66629;47.346;19.038;2023-05-07T13:35:28;2.17;;;1.98;;
77518;SDS011;66629;47.346;19.038;2023-05-07T13:37:54;2.47;;;2.08;;
77518;SDS011;66629;47.346;19.038;2023-05-07T13:40:21;2.42;;;1.88;;
77518;SDS011;66629;47.346;19.038;2023-05-07T13:42:47;2.60;;;2.20;;
77518;SDS011;66629;47.346;19.038;2023-05-07T13:45:12;4.40;;;2.30;;
77518;SDS011;66629;47.346;19.038;2023-05-07T13:47:39;2.65;;;2.10;;
77518;SDS011;66629;47.346;19.038;2023-05-07T13:50:08;3.45;;;2.30;;
77518;SDS011;66629;47.346;19.038;2023-05-07T13:52:36;2.47;;;2.17;;
77518;SDS011;66629;47.346;19.038;2023-05-07T13:55:02;4.18;;;2.15;;
77518;SDS011;66629;47.346;19.038;2023-05-07T13:57:27;2.58;;;1.90;;
77518;SDS011;66629;47.346;19.038;2023-05-07T13:59:53;3.80;;;2.00;;
77518;SDS011;66629;47.346;19.038;2023-05-07T14:02:18;2.15;;;1.92;;
77518;SDS011;66629;47.346;19.038;2023-05-07T14:04:44;2.38;;;2.17;;
77518;SDS011;66629;47.346;19.038;2023-05-07T14:07:10;2.75;;;1.98;;
77518;SDS011;66629;47.346;19.038;2023-05-07T14:09:35;4.03;;;2.50;;
77518;SDS011;66629;47.346;19.038;2023-05-07T14:12:01;3.40;;;2.40;;
77518;SDS011;66629;47.346;19.038;2023-05-07T14:14:26;3.30;;;2.40;;
77518;SDS011;66629;47.346;19.038;2023-05-07T14:16:52;4.10;;;2.20;;
77518;SDS011;66629;47.346;19.038;2023-05-07T14:19:17;3.83;;;2.70;;
77518;SDS011;66629;47.346;19.038;2023-05-07T14:21:43;3.13;;;2.17;;
77518;SDS011;66629;47.346;19.038;2023-05-07T14:24:08;2.28;;;1.88;;
77518;SDS011;66629;47.346;19.038;2023-05-07T14:26:34;5.13;;;2.08;;
77518;SDS011;66629;47.346;19.038;2023-05-07T14:28:59;5.53;;;3.13;;
77518;SDS011;66629;47.346;19.038;2023-05-07T14:31:25;4.68;;;2.80;;
77518;SDS011;66629;47.346;19.038;2023-05-07T14:33:50;3.15;;;2.38;;
77518;SDS011;66629;47.346;19.038;2023-05-07T14:36:17;5.15;;;2.83;;
77518;SDS011;66629;47.346;19.038;2023-05-07T14:38:44;4.13;;;2.70;;
77518;SDS011;66629;47.346;19.038;2023-05-07T14:41:10;4.22;;;2.80;;
77518;SDS011;66629;47.346;19.038;2023-05-07T14:43:36;3.35;;;2.60;;